West Coast Haida Gwaii - southern half: Past 24 Hour Conditions

 

South Moresby - 46147

01:00 AM PST 11 December 2018Buoy position: 51.83N 131.23W
Disclaimer

This table is a summary of hourly weather conditions for the past 24 hours.
Please note that these observations might not always be representative of weather conditions over their associated marine area.

Date / Time
(PST)
Wind(knots) Wave height(m) Wave period(s) Pressure(kPa) Air tempC) Water tempC)
11 December 2018
1:00 SW 23 gust 31 4.8 10.0 99.1 11 10
0:00 SSW 23 gust 29 5.0 10.0 99.1 11 10
10 December 2018
23:00 S 21 gust 25 4.9 10.0 99.2 10 10
22:00 S 21 gust 25 5.6 10.0 99.3 10 10
21:00 SSW 19 gust 25 6.0 10.0 99.4 10 10
20:00 SSE 25 gust 31 5.6 10.0 99.4 10 10
19:00 SSE 31 gust 41 5.7 10.0 99.5 9 10
18:00 SSE 33 gust 47 5.1 9.0 99.7 9 9
17:00 SSE 35 gust 43 4.6 8.0 99.8 9 9
16:00 N/A N/A N/A N/A N/A N/A
15:00 SSE 31 gust 39 4.2 7.0 100.3 9 9
14:00 SSE 31 N/A N/A 100.4 9 N/A
13:00 SSE 29 gust 37 3.7 10.0 100.6 10 9
12:00 SSE 27 gust 37 3.6 10.0 100.8 9 9
11:00 SSE 25 gust 33 3.5 10.0 101.0 10 9
10:00 SSE 25 gust 31 3.5 10.0 101.1 9 9
9:00 SSE 23 gust 29 3.6 10.0 101.2 9 9
8:00 S 21 gust 25 3.5 10.0 101.3 9 9
7:00 S 18 gust 19 3.9 10.0 101.3 9 9
6:00 S 16 gust 19 4.0 11.0 101.4 9 9
5:00 SSW 8 gust 10 4.1 10.0 101.5 8 9
4:00 SSW 14 gust 16 4.0 10.0 101.5 9 9
3:00 WSW 8 gust 12 4.0 11.0 101.5 8 9
2:00 SW 12 gust 16 3.9 11.0 101.4 9 9
1:00 SW 12 gust 18 4.3 12.0 101.4 9 9

Zoom-in to make a selection

Map of Pacific - South Coast marine weather areas South Nomad - 46036 Sentry Shoal - 46131 South Brooks - 46132 Halibut Bank - 46146 South Moresby - 46147 South Hecate Strait - 46185 West Sea Otter - 46204 La Perouse Bank - 46206 East Dellwood - 46207 Discovery Island Esquimalt Harbour Kelp Reefs Malahat Race Rocks Lightstation Saturna Island Sheringham Point University of Victoria Victoria Gonzales Victoria Int'l Airport Ballenas Islands Campbell River Airport Comox Airport Entrance Island Fanny Island Nanaimo Airport Port Hardy Airport Sisters Islets Estevan Point Port Alberni Sartine Island Solander Island Tofino Airport Grief Point Howe Sound - Pam Rocks Powell River Airport Sechelt Squamish Airport Cape St.James Bella Bella Airport Bella Coola Airport Cathedral Point Herbert Island Point Atkinson Sand Heads Lightstation Tsawwassen Ferry Terminal Vancouver Int'l Airport Vancouver Harbour West Vancouver
Legend:
buoy Buoy
land station Land Station

Pacific - South Coast Area

Another Region

What we are doing

Date modified: